• Join FlightAware (Why Join?)
  • Login
  • US Flag 
11:00PM EDT


 

Airport Tracker/Info


-or-


 

Live Flight TrackerFlight Track Log ✈ AAL461 ✈ 22-Apr-2013 ✈ KMSP - KORD

Flight Track Log - Related Links

Times and Time Zones

All times are in EDT time to prevent confusion due to time zone crossing. See the AAL461 flight status page for this flight to view local times or setup timezone preferences in your user account.

Time Position Orientation Groundspeed Altitude Reporting Facility
EDT Latitude Longitude Course Direction KTS MPH feet Rate Location/Type
07:21PM 44.8814 -93.2736 144° Southeast 199 229 2,600  Level FAA TRACON SMA TRACON (SMA)
07:21PM 44.8728 -93.3094 251° West 244 281 3,400 3,000 Climbing FAA TRACON SMA TRACON (SMA)
07:21PM 44.8658 -93.3408 253° West 270 311 4,600 3,780 Climbing FAA TRACON SMA TRACON (SMA)
07:22PM 44.8539 -93.3800 247° West 285 328 6,000 4,800 Climbing FAA TRACON SMA TRACON (SMA)
07:22PM 44.8356 -93.3981 215° Southwest 278 320 7,900 4,920 Climbing FAA TRACON SMA TRACON (SMA)
07:22PM 44.8153 -93.4017 187° South 254 292 9,300 3,720 Climbing FAA TRACON SMA TRACON (SMA)
07:23PM 44.5776 -93.3375 156° South  Level Estimated
07:23PM 44.7892 -93.3881 160° South 258 297 10,400  Level FAA TRACON SMA TRACON (SMA)
07:23PM 44.7681 -93.3747 156° South 267 307 11,200 2,100 Climbing FAA TRACON SMA TRACON (SMA)
07:23PM 44.7464 -93.3581 151° Southeast 282 325 11,800 1,800 Climbing FAA TRACON SMA TRACON (SMA)
07:24PM 44.4761 -93.3758 152° Southeast  Level Estimated
07:24PM 44.7183 -93.3344 149° Southeast 305 351 12,400  Level FAA TRACON SMA TRACON (SMA)
07:24PM 44.6939 -93.3133 148° Southeast 326 375 12,800 1,620 Climbing FAA TRACON SMA TRACON (SMA)
07:24PM 44.6689 -93.2911 148° Southeast 343 395 13,500 2,460 Climbing FAA TRACON SMA TRACON (SMA)
07:25PM 44.3745 -93.4140 157° South  Level Estimated
07:25PM 44.6369 -93.2636 149° Southeast 351 404 14,400  Level FAA TRACON SMA TRACON (SMA)
07:25PM 44.6108 -93.2408 148° Southeast 356 410 15,100 2,220 Climbing FAA TRACON SMA TRACON (SMA)
07:25PM 44.5864 -93.2125 140° Southeast 365 420 15,900 2,460 Climbing FAA TRACON SMA TRACON (SMA)
07:26PM 44.2730 -93.4520 144° Southeast  Level Estimated
07:26PM 44.5564 -93.1753 139° Southeast 371 427 16,800  Level FAA TRACON SMA TRACON (SMA)
07:26PM 44.5331 -93.1444 137° Southeast 375 432 17,500 1,800 Climbing FAA TRACON SMA TRACON (SMA)
07:26PM 44.5089 -93.1133 137° Southeast 380 437 18,000 2,100 Climbing FAA TRACON SMA TRACON (SMA)
07:27PM 44.4789 -93.0742 137° Southeast 385 443 18,900 1,860 Climbing FAA TRACON SMA TRACON (SMA)
07:27PM 44.4544 -93.0425 137° Southeast 387 445 19,300 1,560 Climbing FAA TRACON SMA TRACON (SMA)
07:27PM 44.4297 -93.0100 137° Southeast 391 450 20,000 1,920 Climbing FAA TRACON SMA TRACON (SMA)
07:28PM 44.3994 -92.9681 135° Southeast 398 458 20,600 1,320 Climbing FAA TRACON SMA TRACON (SMA)
07:28PM 44.3744 -92.9342 136° Southeast 403 464 20,900 900 Climbing FAA TRACON SMA TRACON (SMA)
07:28PM 44.3489 -92.9017 138° Southeast 404 465 21,200 1,020 Climbing FAA TRACON SMA TRACON (SMA)
07:29PM 44.3206 -92.8611 134° Southeast 387 445 21,600 720 Climbing FAA TRACON SMA TRACON (SMA)
07:29PM 44.2978 -92.8278 134° Southeast 380 437 21,700 420 Climbing FAA TRACON SMA TRACON (SMA)
07:29PM 44.2750 -92.7956 135° Southeast 379 436 21,900 420 Climbing FAA TRACON SMA TRACON (SMA)
07:30PM 44.2461 -92.7561 136° Southeast 379 436 22,000 120 Climbing FAA TRACON SMA TRACON (SMA)
07:30PM 44.2233 -92.7228 134° Southeast 381 438 22,000  Level FAA TRACON SMA TRACON (SMA)
07:30PM 44.2006 -92.6903 134° Southeast 380 437 22,000  Level FAA TRACON SMA TRACON (SMA)
07:31PM 44.1717 -92.6517 136° Southeast 378 435 22,000  Level FAA TRACON SMA TRACON (SMA)
07:31PM 44.1492 -92.6186 133° Southeast 380 437 22,000  Level FAA TRACON SMA TRACON (SMA)
07:31PM 44.1258 -92.5861 135° Southeast 381 438 22,000  Level FAA TRACON SMA TRACON (SMA)
07:32PM 44.0975 -92.5461 135° Southeast 379 436 22,000  Level FAA TRACON SMA TRACON (SMA)
07:32PM 44.0753 -92.5125 133° Southeast 379 436 22,000  Level FAA TRACON SMA TRACON (SMA)
07:32PM 44.0528 -92.4803 134° Southeast 378 435 22,000  Level FAA TRACON SMA TRACON (SMA)
07:33PM 43.9761 -92.3872 139° Southeast 379 436 22,000  Level Minneapolis Center
07:34PM 43.9022 -92.2833 135° Southeast 380 437 22,000 -60 Level Minneapolis Center
07:35PM 43.8042 -92.2319 159° South 373 429 21,900  Descending Minneapolis Center
07:37PM 43.7050 -92.2053 169° South 369 425 22,000  Climbing Minneapolis Center
07:38PM 43.6050 -92.1836 171° South 367 422 22,000  Level Minneapolis Center
07:39PM 43.5092 -92.1356 160° South 372 428 22,000 -60 Level Minneapolis Center
07:40PM 43.4494 -92.0108 123° Southeast 387 445 21,900  Descending Minneapolis Center
07:41PM 43.3967 -91.8425 113° Southeast 398 458 22,100  Climbing Minneapolis Center
07:42PM 43.3500 -91.7053 115° Southeast 398 458 22,000 -120 Descending Minneapolis Center
07:43PM 43.3042 -91.5672 114° Southeast 399 459 21,900 -840 Descending Minneapolis Center
07:44PM 43.2575 -91.4306 115° Southeast 397 457 20,300 -1,920 Descending Minneapolis Center
07:45PM 43.2133 -91.2994 115° Southeast 386 444 18,000 -1,500 Descending Minneapolis Center
07:46PM 43.1700 -91.1725 115° Southeast 374 430 17,300 -540 Descending Minneapolis Center
07:47PM 43.1261 -91.0428 115° Southeast 375 432 17,000 -180 Descending Minneapolis Center
07:48PM 43.0753 -90.8944 115° Southeast 365 420 17,000 -540 Level Minneapolis Center
07:49PM 43.0239 -90.7489 116° Southeast 361 415 15,800 -1,020 Descending Chicago Center
07:50PM 42.9831 -90.6283 115° Southeast 352 405 14,800 -1,080 Descending Chicago Center
07:51PM 42.9425 -90.5092 115° Southeast 349 402 13,700 -1,020 Descending Chicago Center
07:52PM 42.9014 -90.3942 116° Southeast 342 394 12,800 -900 Descending Chicago Center
07:53PM 42.8614 -90.2806 116° Southeast 338 389 11,900 -480 Descending Chicago Center
07:54PM 42.8128 -90.1444 116° Southeast 335 386 11,900  Level Chicago Center
07:55PM 42.7717 -90.0325 117° Southeast 334 384 11,900  Level Chicago Center
07:56PM 42.7314 -89.9178 116° Southeast 337 388 12,000  Climbing Chicago Center
07:57PM 42.6897 -89.8103 118° Southeast 333 383 11,900  Descending Chicago Center
07:58PM 42.6411 -89.6772 116° Southeast 335 386 12,000  Climbing Chicago Center
07:59PM 42.6014 -89.5628 115° Southeast 336 387 12,000  Level Chicago Center
08:00PM 42.5597 -89.4508 117° Southeast 333 383 12,000 -300 Level Chicago Center
08:01PM 42.5183 -89.3381 116° Southeast 334 384 11,400 -780 Descending Chicago Center
08:03PM 42.4706 -89.2064 116° Southeast 334 384 10,500 -720 Descending Chicago Center
08:04PM 42.4308 -89.0986 117° Southeast 324 373 10,000 -300 Descending Chicago Center
08:05PM 42.3900 -88.9911 117° Southeast 323 372 9,900  Descending Chicago Center
08:06PM 42.3506 -88.8839 116° Southeast 319 367 10,000  Climbing Chicago Center
08:07PM 42.3100 -88.7739 116° Southeast 319 367 10,000  Level Chicago Center
08:08PM 42.2667 -88.6711 120° Southeast 318 366 10,000 -60 Level Chicago Center
08:09PM 42.1992 -88.6203 151° Southeast 279 321 9,900 -240 Descending Chicago Center
08:10PM 42.1172 -88.5583 151° Southeast 282 325 9,600 -540 Descending Chicago Center
08:11PM 42.0469 -88.5278 162° South 270 311 8,800 -900 Descending Chicago Center
08:12PM 41.9814 -88.4942 159° South 254 292 7,800 -900 Descending Chicago Center
08:13PM 41.9675 -88.4147 103° East 216 249 7,000 -960 Descending Chicago Center
08:14PM 41.9669 -88.3381 91° East 208 239 5,900 -900 Descending Chicago Center
08:15PM 41.9664 -88.2717 91° East 186 214 5,200 -540 Descending Chicago Center
08:16PM 41.9675 -88.2078 89° East 175 201 4,800 -840 Descending Chicago Center
08:17PM 41.9678 -88.1350 90° East 167 192 3,600 -960 Descending Chicago Center
08:18PM 41.9681 -88.0786 90° East 162 186 2,900 -720 Descending Chicago Center
08:19PM 41.9686 -88.0300 89° East 149 171 2,200 -780 Descending Chicago Center
08:20PM 41.9692 -87.9803 89° East 140 161 1,400 -540 Descending Chicago Center
08:21PM 41.9697 -87.9328 89° East 139 160 1,200 -240 Descending Chicago Center
08:23PM 41.9667 -87.9000 124° Southeast  Level FlightAware Approximate